Time;durP1;ratioP1;P1;durP2;ratioP2;P2;SDS_P1;SDS_P2;PMS_P1;PMS_P2;Temp;Humidity;BMP_temperature;BMP_pressure;BME280_temperature;BME280_humidity;BME280_pressure;Samples;Min_cycle;Max_cycle;Signal;HPM_P1;HPM_P2
2021/04/24 00:00:22;;;;;;;4.90;2.20;;;;;;;;;;5110128;28;20486;-18
2021/04/24 00:02:48;;;;;;;6.00;2.78;;;;;;;;;;5110343;28;20061;-18
2021/04/24 00:05:27;;;;;;;7.93;2.72;;;;;;;;;;5094446;28;20024;-18
2021/04/24 00:07:53;;;;;;;5.28;3.45;;;;;;;;;;5094251;28;20429;-17
2021/04/24 00:10:19;;;;;;;3.55;2.58;;;;;;;;;;5094319;28;20095;-17
2021/04/24 00:12:45;;;;;;;2.58;2.20;;;;;;;;;;5094156;28;20094;-18
2021/04/24 00:15:11;;;;;;;11.25;4.18;;;;;;;;;;5094374;28;20016;-18
2021/04/24 00:17:36;;;;;;;3.33;2.67;;;;;;;;;;5109552;28;20035;-17
2021/04/24 00:20:04;;;;;;;4.43;2.30;;;;;;;;;;5094248;28;20013;-18
2021/04/24 00:22:30;;;;;;;3.63;2.35;;;;;;;;;;5093968;28;20114;-17
2021/04/24 00:24:56;;;;;;;6.05;2.42;;;;;;;;;;5093978;28;20450;-19
2021/04/24 00:27:21;;;;;;;4.07;2.47;;;;;;;;;;5093825;28;20028;-18
2021/04/24 00:29:46;;;;;;;3.70;2.28;;;;;;;;;;5093691;28;20044;-18
2021/04/24 00:32:12;;;;;;;3.95;2.70;;;;;;;;;;5093620;28;20040;-18
2021/04/24 00:34:37;;;;;;;2.08;1.88;;;;;;;;;;5092495;28;20036;-19
2021/04/24 00:37:02;;;;;;;5.45;3.28;;;;;;;;;;5092543;28;20046;-18
2021/04/24 00:39:28;;;;;;;5.45;2.70;;;;;;;;;;5093693;28;20012;-17
2021/04/24 00:41:53;;;;;;;5.53;2.45;;;;;;;;;;5093878;28;20151;-18
2021/04/24 00:44:19;;;;;;;4.25;1.90;;;;;;;;;;5093723;28;20045;-18
2021/04/24 00:46:44;;;;;;;2.85;2.38;;;;;;;;;;5093279;28;20438;-18
2021/04/24 00:49:10;;;;;;;3.03;2.42;;;;;;;;;;5093471;28;20015;-17
2021/04/24 00:51:35;;;;;;;2.83;2.00;;;;;;;;;;5093667;28;20024;-18
2021/04/24 00:54:01;;;;;;;3.92;2.67;;;;;;;;;;5093263;28;20408;-18
2021/04/24 00:56:26;;;;;;;4.28;2.72;;;;;;;;;;5093344;28;20032;-17
2021/04/24 00:58:52;;;;;;;6.10;2.88;;;;;;;;;;5093354;28;20374;-17
2021/04/24 01:01:17;;;;;;;3.72;2.33;;;;;;;;;;5093193;28;20043;-17
2021/04/24 01:03:43;;;;;;;5.78;2.10;;;;;;;;;;5093285;28;20020;-17
2021/04/24 01:06:08;;;;;;;4.50;2.30;;;;;;;;;;5093012;28;20399;-18
2021/04/24 01:08:33;;;;;;;4.88;2.90;;;;;;;;;;5091726;28;20063;-18
2021/04/24 01:10:59;;;;;;;6.30;2.63;;;;;;;;;;5092996;28;20031;-17
2021/04/24 01:13:24;;;;;;;8.20;2.83;;;;;;;;;;5093055;28;20099;-18
2021/04/24 01:15:50;;;;;;;4.88;3.15;;;;;;;;;;5093047;28;20511;-17
2021/04/24 01:18:15;;;;;;;2.85;2.28;;;;;;;;;;5092846;28;20012;-18
2021/04/24 01:20:41;;;;;;;6.10;3.05;;;;;;;;;;5091671;28;20052;-18
2021/04/24 01:23:07;;;;;;;2.97;2.38;;;;;;;;;;5093144;28;20463;-17
2021/04/24 01:25:35;;;;;;;2.72;2.10;;;;;;;;;;5108592;28;20028;-18
2021/04/24 01:28:00;;;;;;;7.55;2.00;;;;;;;;;;5091206;28;20078;-17
2021/04/24 01:30:36;;;;;;;4.35;2.63;;;;;;;;;;5092852;28;20055;-18
2021/04/24 01:33:02;;;;;;;4.38;2.63;;;;;;;;;;5092606;28;20398;-18
2021/04/24 01:35:29;;;;;;;2.97;2.28;;;;;;;;;;5092695;28;20012;-17
2021/04/24 01:37:55;;;;;;;4.25;2.00;;;;;;;;;;5092867;28;20062;-18
2021/04/24 01:40:21;;;;;;;5.35;3.05;;;;;;;;;;5092641;28;20443;-18
2021/04/24 01:42:47;;;;;;;6.70;2.25;;;;;;;;;;5092511;28;20028;-17
2021/04/24 01:45:13;;;;;;;3.30;2.53;;;;;;;;;;5092552;28;20451;-18
2021/04/24 01:47:40;;;;;;;5.65;2.55;;;;;;;;;;5092366;28;20032;-17
2021/04/24 01:50:09;;;;;;;4.43;2.60;;;;;;;;;;5092412;28;20455;-18
2021/04/24 01:52:35;;;;;;;2.40;2.20;;;;;;;;;;5092744;28;20074;-18
2021/04/24 01:55:01;;;;;;;5.72;2.92;;;;;;;;;;5092370;28;20016;-17
2021/04/24 01:57:26;;;;;;;3.78;2.65;;;;;;;;;;5091706;28;20027;-17
2021/04/24 01:59:52;;;;;;;4.72;2.15;;;;;;;;;;5092491;28;20020;-18
2021/04/24 02:02:17;;;;;;;4.38;3.17;;;;;;;;;;5092625;28;20471;-18
2021/04/24 02:04:42;;;;;;;4.97;2.67;;;;;;;;;;5092269;28;20009;-18
2021/04/24 02:07:10;;;;;;;5.32;2.42;;;;;;;;;;5092257;28;20028;-17
2021/04/24 02:09:35;;;;;;;4.72;2.70;;;;;;;;;;5092563;28;20023;-18
2021/04/24 02:12:00;;;;;;;3.78;2.75;;;;;;;;;;5092414;28;20103;-18
2021/04/24 02:14:26;;;;;;;4.63;2.67;;;;;;;;;;5092596;28;20077;-17
2021/04/24 02:16:51;;;;;;;4.53;2.75;;;;;;;;;;5092190;28;20106;-17
2021/04/24 02:19:16;;;;;;;9.25;2.63;;;;;;;;;;5092105;28;20012;-18
2021/04/24 02:21:42;;;;;;;5.93;2.80;;;;;;;;;;5092518;28;20058;-18
2021/04/24 02:24:07;;;;;;;4.35;2.45;;;;;;;;;;5092113;28;20532;-18
2021/04/24 02:26:32;;;;;;;4.60;2.10;;;;;;;;;;5090793;28;20114;-18
2021/04/24 02:28:58;;;;;;;8.57;2.33;;;;;;;;;;5092012;28;20044;-18
2021/04/24 02:31:23;;;;;;;4.13;1.88;;;;;;;;;;5092334;28;20034;-17
2021/04/24 02:33:49;;;;;;;3.88;2.50;;;;;;;;;;5092347;28;20536;-18
2021/04/24 02:36:14;;;;;;;3.90;2.45;;;;;;;;;;5091998;28;20028;-18
2021/04/24 02:38:48;;;;;;;7.40;2.83;;;;;;;;;;5092325;28;20024;-18
2021/04/24 02:41:13;;;;;;;8.80;3.08;;;;;;;;;;5092159;28;20039;-18
2021/04/24 02:43:38;;;;;;;3.45;2.50;;;;;;;;;;5092350;28;20016;-18
2021/04/24 02:46:04;;;;;;;6.80;3.13;;;;;;;;;;5091855;28;20054;-18
2021/04/24 02:48:29;;;;;;;5.70;2.58;;;;;;;;;;5090694;28;20028;-18
2021/04/24 02:50:54;;;;;;;4.45;2.58;;;;;;;;;;5092216;28;20024;-18
2021/04/24 02:53:20;;;;;;;10.93;2.90;;;;;;;;;;5092021;28;20060;-17
2021/04/24 02:55:45;;;;;;;5.28;2.15;;;;;;;;;;5092209;28;20028;-18
2021/04/24 02:58:10;;;;;;;4.82;2.13;;;;;;;;;;5091727;28;20036;-18
2021/04/24 03:00:36;;;;;;;4.07;2.10;;;;;;;;;;5092086;28;20030;-18
2021/04/24 03:03:01;;;;;;;4.00;2.40;;;;;;;;;;5091839;28;20378;-18
2021/04/24 03:05:26;;;;;;;3.00;1.90;;;;;;;;;;5091842;28;20520;-17
2021/04/24 03:07:52;;;;;;;3.65;2.25;;;;;;;;;;5092264;28;20027;-17
2021/04/24 03:10:17;;;;;;;4.72;2.45;;;;;;;;;;5095662;28;20031;-17
2021/04/24 03:12:43;;;;;;;6.00;2.40;;;;;;;;;;5094039;28;20121;-18
2021/04/24 03:15:08;;;;;;;6.38;2.38;;;;;;;;;;5095258;28;20031;-18
2021/04/24 03:17:34;;;;;;;3.28;2.25;;;;;;;;;;5095237;28;20390;-18
2021/04/24 03:20:00;;;;;;;5.32;2.70;;;;;;;;;;5095587;28;20082;-18
2021/04/24 03:22:25;;;;;;;4.63;2.70;;;;;;;;;;5095460;28;20027;-18
2021/04/24 03:24:51;;;;;;;4.63;2.40;;;;;;;;;;5095203;28;20596;-18
2021/04/24 03:27:16;;;;;;;3.28;2.05;;;;;;;;;;5095316;28;20020;-18
2021/04/24 03:29:42;;;;;;;6.93;2.13;;;;;;;;;;5094814;28;20047;-17
2021/04/24 03:32:07;;;;;;;4.15;2.20;;;;;;;;;;5094819;28;20047;-17
2021/04/24 03:34:33;;;;;;;4.88;2.17;;;;;;;;;;5095030;28;20027;-17
2021/04/24 03:36:58;;;;;;;2.75;2.05;;;;;;;;;;5094847;28;20016;-18
2021/04/24 03:39:24;;;;;;;8.20;2.45;;;;;;;;;;5095082;28;20077;-17
2021/04/24 03:41:51;;;;;;;4.05;2.20;;;;;;;;;;5094782;28;20042;-18
2021/04/24 03:44:16;;;;;;;3.33;2.13;;;;;;;;;;5094658;28;20028;-17
2021/04/24 03:46:41;;;;;;;4.25;2.55;;;;;;;;;;5094948;28;20552;-18
2021/04/24 03:49:07;;;;;;;4.13;2.65;;;;;;;;;;5094611;28;20024;-18
2021/04/24 03:51:32;;;;;;;4.53;2.33;;;;;;;;;;5094524;28;20028;-18
2021/04/24 03:53:57;;;;;;;5.40;2.72;;;;;;;;;;5094496;28;20047;-18
2021/04/24 03:56:23;;;;;;;4.55;2.03;;;;;;;;;;5094710;28;20043;-17
2021/04/24 03:58:48;;;;;;;4.10;2.38;;;;;;;;;;5094485;28;20032;-19
2021/04/24 04:01:14;;;;;;;7.28;2.67;;;;;;;;;;5094344;28;20016;-18
2021/04/24 04:03:40;;;;;;;3.08;2.17;;;;;;;;;;5094697;28;20032;-17
2021/04/24 04:06:05;;;;;;;4.03;2.17;;;;;;;;;;5094405;28;20347;-18
2021/04/24 04:08:30;;;;;;;6.15;2.47;;;;;;;;;;5094336;28;20032;-19
2021/04/24 04:10:56;;;;;;;3.92;2.50;;;;;;;;;;5094273;28;20104;-17
2021/04/24 04:13:21;;;;;;;4.60;2.58;;;;;;;;;;5094307;28;20073;-17
2021/04/24 04:15:46;;;;;;;2.83;2.20;;;;;;;;;;5094396;28;20486;-17
2021/04/24 04:18:16;;;;;;;5.85;2.42;;;;;;;;;;5094329;28;20596;-18
2021/04/24 04:20:51;;;;;;;3.33;2.20;;;;;;;;;;5093423;28;20024;-19
2021/04/24 04:23:17;;;;;;;2.75;2.03;;;;;;;;;;5094016;28;20111;-17
2021/04/24 04:25:43;;;;;;;4.22;2.70;;;;;;;;;;5094146;28;20102;-18
2021/04/24 04:28:08;;;;;;;6.15;2.30;;;;;;;;;;5093891;28;20039;-18
2021/04/24 04:30:34;;;;;;;4.53;2.63;;;;;;;;;;5093892;28;20082;-17
2021/04/24 04:33:00;;;;;;;5.32;2.65;;;;;;;;;;5093780;28;20028;-17
2021/04/24 04:35:26;;;;;;;3.13;2.45;;;;;;;;;;5093748;28;20040;-18
2021/04/24 04:37:52;;;;;;;2.95;2.42;;;;;;;;;;5093717;28;20024;-18
2021/04/24 04:40:17;;;;;;;2.80;2.40;;;;;;;;;;5093576;28;20488;-18
2021/04/24 04:42:43;;;;;;;5.63;2.90;;;;;;;;;;5093942;28;20375;-18
2021/04/24 04:45:09;;;;;;;3.10;2.05;;;;;;;;;;5093531;28;20015;-18
2021/04/24 04:47:35;;;;;;;4.57;2.40;;;;;;;;;;5093440;28;20036;-18
2021/04/24 04:50:01;;;;;;;4.78;2.33;;;;;;;;;;5092262;28;20024;-18
2021/04/24 04:52:26;;;;;;;3.72;2.22;;;;;;;;;;5093675;28;20051;-17
2021/04/24 04:54:52;;;;;;;7.05;2.88;;;;;;;;;;5093383;28;20463;-18
2021/04/24 04:57:17;;;;;;;3.20;2.42;;;;;;;;;;5093268;28;20110;-18
2021/04/24 04:59:43;;;;;;;7.72;2.53;;;;;;;;;;5093413;28;20103;-18
2021/04/24 05:02:08;;;;;;;3.45;2.63;;;;;;;;;;5093423;28;20073;-16
2021/04/24 05:04:34;;;;;;;6.60;2.25;;;;;;;;;;5091884;28;20020;-17
2021/04/24 05:07:00;;;;;;;8.98;2.78;;;;;;;;;;5093129;28;20024;-18
2021/04/24 05:09:25;;;;;;;3.45;2.35;;;;;;;;;;5093272;28;20356;-17
2021/04/24 05:11:51;;;;;;;2.70;2.22;;;;;;;;;;5092903;28;20044;-18
2021/04/24 05:14:17;;;;;;;3.30;2.30;;;;;;;;;;5092987;28;20050;-17
2021/04/24 05:16:42;;;;;;;4.53;2.42;;;;;;;;;;5092875;28;20032;-18
2021/04/24 05:19:08;;;;;;;5.40;2.70;;;;;;;;;;5092836;28;20015;-17
2021/04/24 05:21:34;;;;;;;3.25;2.33;;;;;;;;;;5092903;28;20059;-18
2021/04/24 05:24:00;;;;;;;7.68;2.40;;;;;;;;;;5092870;28;20020;-17
2021/04/24 05:26:25;;;;;;;6.30;2.53;;;;;;;;;;5092815;28;20027;-17
2021/04/24 05:28:50;;;;;;;4.05;2.50;;;;;;;;;;5092750;28;20044;-17
2021/04/24 05:31:16;;;;;;;4.05;2.55;;;;;;;;;;5091893;28;20085;-17
2021/04/24 05:33:42;;;;;;;4.55;2.75;;;;;;;;;;5092577;28;20082;-17
2021/04/24 05:36:11;;;;;;;6.53;2.75;;;;;;;;;;5092642;28;20052;-17
2021/04/24 05:38:37;;;;;;;4.85;2.17;;;;;;;;;;5092715;28;20065;-17
2021/04/24 05:41:03;;;;;;;3.05;2.15;;;;;;;;;;5091340;28;20024;-17
2021/04/24 05:43:28;;;;;;;6.25;2.25;;;;;;;;;;5092749;28;20081;-18
2021/04/24 05:45:53;;;;;;;3.78;2.30;;;;;;;;;;5092762;28;20028;-18
2021/04/24 05:48:19;;;;;;;3.60;1.92;;;;;;;;;;5092736;28;20103;-17
2021/04/24 05:50:44;;;;;;;5.22;2.88;;;;;;;;;;5092581;28;20532;-18
2021/04/24 05:53:10;;;;;;;5.50;2.83;;;;;;;;;;5092542;28;20062;-18
2021/04/24 05:55:36;;;;;;;5.40;2.70;;;;;;;;;;5092532;28;20076;-18
2021/04/24 05:58:02;;;;;;;5.18;2.50;;;;;;;;;;5092413;28;20099;-18
2021/04/24 06:00:27;;;;;;;4.82;2.65;;;;;;;;;;5092790;28;20056;-18
2021/04/24 06:02:52;;;;;;;4.63;2.67;;;;;;;;;;5108231;28;20016;-17
2021/04/24 06:05:18;;;;;;;4.53;2.10;;;;;;;;;;5092270;28;20435;-17
2021/04/24 06:07:44;;;;;;;7.82;2.60;;;;;;;;;;5092612;28;20023;-19
2021/04/24 06:10:11;;;;;;;6.40;2.72;;;;;;;;;;5092589;28;20024;-20
2021/04/24 06:12:36;;;;;;;5.20;2.60;;;;;;;;;;5092195;28;20035;-20
2021/04/24 06:15:02;;;;;;;4.60;2.47;;;;;;;;;;5091094;28;20028;-19
2021/04/24 06:17:27;;;;;;;3.58;1.83;;;;;;;;;;5090957;28;20024;-19
2021/04/24 06:19:53;;;;;;;3.70;2.58;;;;;;;;;;5092249;28;20470;-19
2021/04/24 06:22:19;;;;;;;3.13;2.42;;;;;;;;;;5090956;28;20019;-19
2021/04/24 06:24:44;;;;;;;5.28;2.60;;;;;;;;;;5092303;28;20027;-19
2021/04/24 06:27:10;;;;;;;4.78;2.50;;;;;;;;;;5092079;28;20024;-19
2021/04/24 06:29:36;;;;;;;5.03;2.13;;;;;;;;;;5090791;28;20511;-19
2021/04/24 06:32:02;;;;;;;3.88;2.33;;;;;;;;;;5092157;28;20040;-19
2021/04/24 06:34:27;;;;;;;5.53;1.98;;;;;;;;;;5092309;28;20025;-19
2021/04/24 06:36:53;;;;;;;3.47;2.33;;;;;;;;;;5082825;28;20020;-20
2021/04/24 06:39:18;;;;;;;3.88;2.50;;;;;;;;;;5071732;28;20387;-20
2021/04/24 06:41:43;;;;;;;3.55;2.35;;;;;;;;;;5071473;28;20023;-20
2021/04/24 06:44:09;;;;;;;3.30;2.35;;;;;;;;;;5074425;28;20070;-20
2021/04/24 06:46:34;;;;;;;4.68;2.53;;;;;;;;;;5075229;28;20151;-20
2021/04/24 06:48:59;;;;;;;12.95;2.45;;;;;;;;;;5074162;28;20024;-20
2021/04/24 06:51:25;;;;;;;3.08;2.72;;;;;;;;;;5074039;28;20099;-20
2021/04/24 06:53:53;;;;;;;5.43;3.08;;;;;;;;;;5075447;28;20115;-20
2021/04/24 06:56:19;;;;;;;2.40;2.15;;;;;;;;;;5075179;28;20012;-20
2021/04/24 06:58:45;;;;;;;4.70;2.28;;;;;;;;;;5075387;28;20032;-20
2021/04/24 07:01:10;;;;;;;3.83;1.98;;;;;;;;;;5075475;28;20017;-21
2021/04/24 07:03:37;;;;;;;6.35;2.28;;;;;;;;;;5075164;28;20032;-20
2021/04/24 07:06:02;;;;;;;6.55;2.58;;;;;;;;;;5075151;28;20039;-20
2021/04/24 07:08:28;;;;;;;6.35;2.53;;;;;;;;;;5075125;28;20028;-20
2021/04/24 07:10:53;;;;;;;3.83;1.88;;;;;;;;;;5075145;28;20012;-21
2021/04/24 07:13:19;;;;;;;6.50;2.78;;;;;;;;;;5074895;28;20109;-20
2021/04/24 07:15:44;;;;;;;7.70;2.10;;;;;;;;;;5074989;28;20486;-20
2021/04/24 07:18:10;;;;;;;6.22;2.70;;;;;;;;;;5075091;28;20038;-20
2021/04/24 07:20:35;;;;;;;3.35;2.10;;;;;;;;;;5074879;28;20099;-20
2021/04/24 07:23:00;;;;;;;5.45;3.42;;;;;;;;;;5075207;28;20032;-20
2021/04/24 07:25:26;;;;;;;4.55;2.20;;;;;;;;;;5074687;28;20023;-19
2021/04/24 07:27:51;;;;;;;4.22;2.60;;;;;;;;;;5074626;28;20028;-19
2021/04/24 07:30:17;;;;;;;6.45;2.10;;;;;;;;;;5074941;28;20115;-19
2021/04/24 07:32:43;;;;;;;8.88;2.40;;;;;;;;;;5074581;28;20043;-19
2021/04/24 07:35:08;;;;;;;7.18;2.38;;;;;;;;;;5073348;28;20066;-19
2021/04/24 07:37:34;;;;;;;9.30;2.22;;;;;;;;;;5074617;28;20040;-19
2021/04/24 07:39:59;;;;;;;6.65;2.17;;;;;;;;;;5074768;28;20021;-19
2021/04/24 07:42:25;;;;;;;6.53;2.25;;;;;;;;;;5074710;28;20080;-19
2021/04/24 07:44:50;;;;;;;3.05;2.20;;;;;;;;;;5074423;28;20028;-19
2021/04/24 07:47:15;;;;;;;4.63;2.80;;;;;;;;;;5074642;28;20032;-19
2021/04/24 07:49:41;;;;;;;4.50;2.00;;;;;;;;;;5074421;28;20052;-19
2021/04/24 07:52:08;;;;;;;5.00;2.70;;;;;;;;;;5074407;28;20033;-19
2021/04/24 07:54:34;;;;;;;5.28;2.42;;;;;;;;;;5072369;28;20020;-19
2021/04/24 07:57:00;;;;;;;3.70;2.72;;;;;;;;;;5074467;28;20551;-19
2021/04/24 07:59:26;;;;;;;17.38;8.55;;;;;;;;;;5074418;28;20089;-18
2021/04/24 08:01:51;;;;;;;6.35;2.80;;;;;;;;;;5074209;28;20471;-19
2021/04/24 08:04:17;;;;;;;11.13;2.67;;;;;;;;;;5074104;28;20051;-19
2021/04/24 08:06:43;;;;;;;4.25;2.22;;;;;;;;;;5073901;28;20033;-18
2021/04/24 08:09:08;;;;;;;3.35;2.17;;;;;;;;;;5074240;28;20017;-19
2021/04/24 08:11:33;;;;;;;5.03;2.20;;;;;;;;;;5074251;28;20491;-19
2021/04/24 08:13:59;;;;;;;4.72;2.50;;;;;;;;;;5074217;28;20048;-19
2021/04/24 08:16:24;;;;;;;5.55;2.50;;;;;;;;;;5073713;28;20139;-19
2021/04/24 08:18:50;;;;;;;10.85;1.92;;;;;;;;;;5073807;28;20058;-19
2021/04/24 08:21:15;;;;;;;6.32;2.45;;;;;;;;;;5073702;28;20032;-19
2021/04/24 08:23:41;;;;;;;4.57;1.73;;;;;;;;;;5072446;28;20013;-19
2021/04/24 08:26:06;;;;;;;4.57;2.45;;;;;;;;;;5073519;28;20033;-19
2021/04/24 08:28:32;;;;;;;4.75;2.13;;;;;;;;;;5073439;28;20051;-19
2021/04/24 08:30:57;;;;;;;3.42;2.28;;;;;;;;;;5073662;28;20029;-19
2021/04/24 08:33:22;;;;;;;4.38;1.77;;;;;;;;;;5072162;28;20032;-19
2021/04/24 08:35:48;;;;;;;7.55;2.47;;;;;;;;;;5073372;28;20021;-19
2021/04/24 08:38:13;;;;;;;5.47;2.20;;;;;;;;;;4726581;28;10000435;-19
2021/04/24 08:40:39;;;;;;;3.47;1.27;;;;;;;;;;5090122;28;20024;-19
2021/04/24 08:43:04;;;;;;;2.20;1.52;;;;;;;;;;5089938;28;21013;-19
2021/04/24 08:45:30;;;;;;;7.13;4.82;;;;;;;;;;5089865;28;20039;-22
2021/04/24 08:47:56;;;;;;;11.80;9.73;;;;;;;;;;5089420;28;20096;-21
2021/04/24 08:50:22;;;;;;;6.38;3.80;;;;;;;;;;5088689;28;20574;-21
2021/04/24 08:52:48;;;;;;;4.03;2.83;;;;;;;;;;5088948;28;20119;-21
2021/04/24 08:55:16;;;;;;;2.85;1.95;;;;;;;;;;5089918;28;20117;-19
2021/04/24 08:57:42;;;;;;;4.35;2.17;;;;;;;;;;5089630;28;20020;-19
2021/04/24 09:00:08;;;;;;;3.65;1.88;;;;;;;;;;5089138;28;20059;-20
2021/04/24 09:02:33;;;;;;;6.90;2.53;;;;;;;;;;5089338;28;20150;-20
2021/04/24 09:04:59;;;;;;;2.38;1.85;;;;;;;;;;5089821;28;20079;-21
2021/04/24 09:07:25;;;;;;;2.90;1.85;;;;;;;;;;5087760;28;20458;-21
2021/04/24 09:09:58;;;;;;;4.75;1.60;;;;;;;;;;5089627;28;20415;-28
2021/04/24 09:12:36;;;;;;;4.95;2.20;;;;;;;;;;5088995;28;20124;-20
2021/04/24 09:15:05;;;;;;;14.52;9.20;;;;;;;;;;5087313;28;20040;-20
2021/04/24 09:18:11;;;;;;;11.77;8.63;;;;;;;;;;5089454;28;20368;-20
2021/04/24 09:20:53;;;;;;;4.75;3.45;;;;;;;;;;5066234;28;20083;-21
2021/04/24 09:23:19;;;;;;;3.05;1.92;;;;;;;;;;5066401;28;20054;-20
2021/04/24 09:25:46;;;;;;;16.50;1.83;;;;;;;;;;5067879;28;20487;-20
2021/04/24 09:28:22;;;;;;;2.78;1.98;;;;;;;;;;5068916;28;20071;-20
2021/04/24 09:30:48;;;;;;;3.67;1.95;;;;;;;;;;5069422;28;20526;-20
2021/04/24 09:33:14;;;;;;;6.28;1.65;;;;;;;;;;5069120;28;20072;-20
2021/04/24 09:35:40;;;;;;;3.30;1.92;;;;;;;;;;5068972;28;20028;-20
2021/04/24 09:38:07;;;;;;;2.88;2.00;;;;;;;;;;5074635;28;20024;-20
2021/04/24 09:40:32;;;;;;;5.75;1.92;;;;;;;;;;5089124;28;20020;-20
2021/04/24 09:42:59;;;;;;;4.50;2.10;;;;;;;;;;5089137;28;20110;-20
2021/04/24 09:45:24;;;;;;;5.25;1.80;;;;;;;;;;5089046;28;20046;-20
2021/04/24 09:47:49;;;;;;;3.03;1.98;;;;;;;;;;5089286;28;20020;-20
2021/04/24 09:50:16;;;;;;;5.68;2.05;;;;;;;;;;5088552;28;20047;-20
2021/04/24 09:52:42;;;;;;;3.70;2.53;;;;;;;;;;5089226;28;20122;-19
2021/04/24 09:55:12;;;;;;;3.95;1.90;;;;;;;;;;5089180;28;20108;-21
2021/04/24 09:57:37;;;;;;;3.15;1.55;;;;;;;;;;5087185;28;20497;-20
2021/04/24 10:00:07;;;;;;;7.63;2.15;;;;;;;;;;5089008;28;20036;-20
2021/04/24 10:02:43;;;;;;;2.60;1.77;;;;;;;;;;5088637;28;20429;-20
2021/04/24 10:05:09;;;;;;;8.88;2.25;;;;;;;;;;5089050;28;20032;-20
2021/04/24 10:07:38;;;;;;;4.20;2.00;;;;;;;;;;5089438;28;20031;-20
2021/04/24 10:10:05;;;;;;;6.28;2.70;;;;;;;;;;5089162;28;20027;-19
2021/04/24 10:12:30;;;;;;;5.57;2.20;;;;;;;;;;5088803;28;20036;-20
2021/04/24 10:14:56;;;;;;;1.65;1.48;;;;;;;;;;5088630;28;20070;-19
2021/04/24 10:17:21;;;;;;;2.53;1.85;;;;;;;;;;5088888;28;20062;-19
2021/04/24 10:19:48;;;;;;;5.70;2.50;;;;;;;;;;5092677;28;20028;-19
2021/04/24 10:22:17;;;;;;;3.78;2.55;;;;;;;;;;5093147;28;20031;-19
2021/04/24 10:24:43;;;;;;;6.85;1.65;;;;;;;;;;5093066;28;20062;-19
2021/04/24 10:27:10;;;;;;;4.35;1.95;;;;;;;;;;5092182;28;20052;-19
2021/04/24 10:29:36;;;;;;;3.95;1.55;;;;;;;;;;5092392;28;20138;-18
2021/04/24 10:32:02;;;;;;;2.30;1.70;;;;;;;;;;5092599;28;20123;-19
2021/04/24 10:34:27;;;;;;;4.25;1.80;;;;;;;;;;5092601;28;20031;-19
2021/04/24 10:36:53;;;;;;;6.50;1.85;;;;;;;;;;5092682;28;20023;-19
2021/04/24 10:39:20;;;;;;;1.70;1.60;;;;;;;;;;5108316;28;20063;-19
2021/04/24 10:41:48;;;;;;;3.42;2.20;;;;;;;;;;5092233;28;20099;-19
2021/04/24 10:44:14;;;;;;;4.00;1.33;;;;;;;;;;5092368;28;20092;-19
2021/04/24 10:46:55;;;;;;;8.73;2.63;;;;;;;;;;5092354;28;20575;-19
2021/04/24 10:49:21;;;;;;;3.28;2.15;;;;;;;;;;5092271;28;20394;-19
2021/04/24 10:52:00;;;;;;;4.25;2.00;;;;;;;;;;5092156;28;20020;-19
2021/04/24 10:54:26;;;;;;;2.20;1.65;;;;;;;;;;5092530;28;20067;-19
2021/04/24 10:56:52;;;;;;;3.63;1.73;;;;;;;;;;5092509;28;20374;-18
2021/04/24 10:59:19;;;;;;;7.07;2.22;;;;;;;;;;5091952;28;20119;-19
2021/04/24 11:02:03;;;;;;;4.13;1.95;;;;;;;;;;5092137;28;20028;-19
2021/04/24 11:04:39;;;;;;;8.65;3.13;;;;;;;;;;5107691;28;20028;-19
2021/04/24 11:07:17;;;;;;;7.38;3.13;;;;;;;;;;5092072;28;20032;-19
2021/04/24 11:09:44;;;;;;;2.40;1.50;;;;;;;;;;5091588;28;20708;-19
2021/04/24 11:12:12;;;;;;;3.03;2.08;;;;;;;;;;5090752;28;20506;-18
2021/04/24 11:14:40;;;;;;;2.88;1.83;;;;;;;;;;5091350;28;20027;-20
2021/04/24 11:17:07;;;;;;;7.30;3.35;;;;;;;;;;5091851;28;20012;-19
2021/04/24 11:19:40;;;;;;;3.10;1.63;;;;;;;;;;5091286;28;20028;-19
2021/04/24 11:22:23;;;;;;;10.20;3.17;;;;;;;;;;5091094;28;20071;-19
2021/04/24 11:24:49;;;;;;;3.67;1.60;;;;;;;;;;5091387;28;20475;-19
2021/04/24 11:27:14;;;;;;;10.60;2.60;;;;;;;;;;5091113;28;20027;-19
2021/04/24 11:29:40;;;;;;;1.77;1.63;;;;;;;;;;5091076;28;20036;-19
2021/04/24 11:32:08;;;;;;;2.28;1.58;;;;;;;;;;5091155;28;20494;-19
2021/04/24 11:35:02;;;;;;;5.05;2.33;;;;;;;;;;5090908;28;20103;-19
2021/04/24 11:37:29;;;;;;;2.08;1.77;;;;;;;;;;5080680;28;20058;-19
2021/04/24 11:40:13;;;;;;;0.47;0.47;;;;;;;;;;5091479;28;20024;-26
2021/04/24 11:42:50;;;;;;;4.07;1.88;;;;;;;;;;5091340;28;20044;-19
2021/04/24 11:45:16;;;;;;;3.28;2.10;;;;;;;;;;5090967;28;20036;-19
2021/04/24 11:47:51;;;;;;;5.13;2.67;;;;;;;;;;5091123;28;20016;-19
2021/04/24 11:50:18;;;;;;;5.68;2.30;;;;;;;;;;5090650;28;20067;-19
2021/04/24 11:52:54;;;;;;;0.38;0.22;;;;;;;;;;5090312;28;20031;-19
2021/04/24 11:55:20;;;;;;;4.47;2.03;;;;;;;;;;5090423;28;20030;-19
2021/04/24 11:57:46;;;;;;;3.90;2.00;;;;;;;;;;5090639;28;20463;-19
2021/04/24 12:00:12;;;;;;;2.88;1.83;;;;;;;;;;5090722;28;20518;-19
2021/04/24 12:02:37;;;;;;;4.20;1.63;;;;;;;;;;5090089;28;20155;-20
2021/04/24 12:05:06;;;;;;;5.05;2.13;;;;;;;;;;5090398;28;20070;-20
2021/04/24 12:07:38;;;;;;;3.17;1.98;;;;;;;;;;5090494;28;20020;-19
2021/04/24 12:10:05;;;;;;;1.50;1.15;;;;;;;;;;5090655;28;20418;-19
2021/04/24 12:12:34;;;;;;;3.58;2.05;;;;;;;;;;5090420;28;20036;-19
2021/04/24 12:15:07;;;;;;;2.70;2.00;;;;;;;;;;5088628;28;20052;-19
2021/04/24 12:17:33;;;;;;;6.18;2.83;;;;;;;;;;5090158;28;20084;-19
2021/04/24 12:19:58;;;;;;;2.55;1.17;;;;;;;;;;5090294;28;20032;-19
2021/04/24 12:22:24;;;;;;;4.25;2.08;;;;;;;;;;5090445;28;20059;-19
2021/04/24 12:24:49;;;;;;;3.65;2.40;;;;;;;;;;5090131;28;20040;-19
2021/04/24 12:27:22;;;;;;;3.38;2.40;;;;;;;;;;5089774;28;20379;-19
2021/04/24 12:29:52;;;;;;;2.38;1.70;;;;;;;;;;5088776;28;20474;-19
2021/04/24 12:32:19;;;;;;;6.03;2.67;;;;;;;;;;5090121;28;20040;-19
2021/04/24 12:34:45;;;;;;;7.50;2.38;;;;;;;;;;5090447;28;20110;-19
2021/04/24 12:37:13;;;;;;;6.28;2.20;;;;;;;;;;5089811;28;20713;-19
2021/04/24 12:39:39;;;;;;;4.57;2.22;;;;;;;;;;5089733;28;20035;-19
2021/04/24 12:42:05;;;;;;;4.03;2.38;;;;;;;;;;5089261;28;20016;-19
2021/04/24 12:44:31;;;;;;;8.00;3.25;;;;;;;;;;5089903;28;20533;-20
2021/04/24 12:46:56;;;;;;;4.47;2.53;;;;;;;;;;5090063;28;20547;-19
2021/04/24 12:49:22;;;;;;;4.45;2.40;;;;;;;;;;5089331;28;20020;-20
2021/04/24 12:51:59;;;;;;;8.43;2.25;;;;;;;;;;5089327;28;20425;-19
2021/04/24 12:54:24;;;;;;;4.88;2.65;;;;;;;;;;5089775;28;20093;-21
2021/04/24 12:56:50;;;;;;;6.68;2.33;;;;;;;;;;5090092;28;20036;-19
2021/04/24 12:59:21;;;;;;;3.30;1.33;;;;;;;;;;5105022;28;20368;-21
2021/04/24 13:01:50;;;;;;;3.08;1.90;;;;;;;;;;5089355;28;20081;-19
2021/04/24 13:04:15;;;;;;;4.68;2.03;;;;;;;;;;5089341;28;20082;-19
2021/04/24 13:06:52;;;;;;;4.22;2.55;;;;;;;;;;5089249;28;20036;-19
2021/04/24 13:09:21;;;;;;;3.70;2.05;;;;;;;;;;5089120;28;20471;-20
2021/04/24 13:11:55;;;;;;;4.65;2.25;;;;;;;;;;5087989;28;20528;-20
2021/04/24 13:14:25;;;;;;;4.60;3.38;;;;;;;;;;5089267;28;20039;-20
2021/04/24 13:16:51;;;;;;;4.22;1.95;;;;;;;;;;5089775;28;20024;-19
2021/04/24 13:19:17;;;;;;;2.03;1.15;;;;;;;;;;5089658;28;20519;-19
2021/04/24 13:21:43;;;;;;;2.55;1.90;;;;;;;;;;5088234;28;20463;-20
2021/04/24 13:24:12;;;;;;;4.18;2.30;;;;;;;;;;5089336;28;20039;-20
2021/04/24 13:26:39;;;;;;;6.03;2.35;;;;;;;;;;5088914;28;20020;-19
2021/04/24 13:29:12;;;;;;;4.72;2.08;;;;;;;;;;5089200;28;20060;-20
2021/04/24 13:31:37;;;;;;;3.08;2.03;;;;;;;;;;5089265;28;20031;-19
2021/04/24 13:34:29;;;;;;;4.38;1.77;;;;;;;;;;5089253;28;20036;-20
2021/04/24 13:36:59;;;;;;;4.68;2.25;;;;;;;;;;5087893;28;20079;-20
2021/04/24 13:39:26;;;;;;;4.63;3.10;;;;;;;;;;5088791;28;20463;-20
2021/04/24 13:41:52;;;;;;;4.38;2.55;;;;;;;;;;5089024;28;20078;-20
2021/04/24 13:44:17;;;;;;;7.43;2.20;;;;;;;;;;5089436;28;20023;-19
2021/04/24 13:46:47;;;;;;;3.70;2.20;;;;;;;;;;5089078;28;20642;-19
2021/04/24 13:49:16;;;;;;;6.40;2.40;;;;;;;;;;5089073;28;20470;-20
2021/04/24 13:51:42;;;;;;;7.18;2.25;;;;;;;;;;5089149;28;20078;-20
2021/04/24 13:54:07;;;;;;;2.60;1.83;;;;;;;;;;5088434;28;20094;-20
2021/04/24 13:56:33;;;;;;;2.78;1.65;;;;;;;;;;5088907;28;20028;-20
2021/04/24 13:59:02;;;;;;;2.50;1.80;;;;;;;;;;5089162;28;20471;-20
2021/04/24 14:01:28;;;;;;;3.53;2.28;;;;;;;;;;5088638;28;20043;-20
2021/04/24 14:03:53;;;;;;;3.28;2.67;;;;;;;;;;5089122;28;20024;-20
2021/04/24 14:06:19;;;;;;;2.35;1.80;;;;;;;;;;5086397;28;20511;-20
2021/04/24 14:08:44;;;;;;;11.20;2.58;;;;;;;;;;5088815;28;20031;-20
2021/04/24 14:11:10;;;;;;;3.85;2.63;;;;;;;;;;5088696;28;20569;-20
2021/04/24 14:13:35;;;;;;;6.35;2.22;;;;;;;;;;5087881;28;20035;-25
2021/04/24 14:16:01;;;;;;;5.50;1.90;;;;;;;;;;5088298;28;20067;-19
2021/04/24 14:18:26;;;;;;;3.95;1.58;;;;;;;;;;5087988;28;20012;-20
2021/04/24 14:20:52;;;;;;;6.47;2.78;;;;;;;;;;5088860;28;20035;-20
2021/04/24 14:23:17;;;;;;;6.93;2.63;;;;;;;;;;5088439;28;20638;-20
2021/04/24 14:25:42;;;;;;;4.43;2.55;;;;;;;;;;5103611;28;20034;-21
2021/04/24 14:28:08;;;;;;;10.52;2.80;;;;;;;;;;5087774;28;20105;-21
2021/04/24 14:30:33;;;;;;;3.65;2.67;;;;;;;;;;5088171;28;20081;-21
2021/04/24 14:32:59;;;;;;;3.85;3.08;;;;;;;;;;5088394;28;20050;-20
2021/04/24 14:35:24;;;;;;;7.28;2.88;;;;;;;;;;5088314;28;20383;-20
2021/04/24 14:37:49;;;;;;;5.80;3.17;;;;;;;;;;5088077;28;20032;-20
2021/04/24 14:40:17;;;;;;;2.78;2.03;;;;;;;;;;5088320;28;20024;-21